Lebanon, Oregon
Current Conditions -  °F | °C
As of 3:35 PM on Monday 20 Oct 2014 (Local Time) from KCVO Reporting Station
Overcast Overcast  
Wind Chill: 17°   Ceiling: 3600
Heat Index: 17°   Visibility: 10mi
Dew Point: 13°   Wind: 9mph
Humidity: 77%   Direction: 180°S
Pressure: 29.82"   Gusts: NA
Location:  44.54°N, 122.9°W
Report Text: KCVO 202235Z AUTO 18008KT 10SM SCT025 BKN036 OVC046 17/13 A2982 RMK AO1
Loading
Personal Weather Stations






























Interactive Weather Map
Tropical Storm Tracking
New forecast layout! Learn more

10-Day Weather Forecast

Advertisements
Track Severe Weather on mobile